createdAt,value
2017-06-20T00:00:42.751Z,0
2017-06-20T00:01:42.775Z,0
2017-06-20T00:02:42.812Z,0
2017-06-20T00:03:42.565Z,0
2017-06-20T00:04:43.112Z,0
2017-06-20T00:05:42.894Z,0
2017-06-20T00:06:42.928Z,0
2017-06-20T00:07:42.024Z,0
2017-06-20T00:08:42.986Z,0
2017-06-20T00:09:42.949Z,0
2017-06-20T00:10:42.731Z,0
2017-06-20T00:11:43.076Z,0
2017-06-20T00:12:42.804Z,0
2017-06-20T00:13:42.819Z,0
2017-06-20T00:14:43.114Z,0
2017-06-20T00:15:42.882Z,0
2017-06-20T00:16:42.928Z,0
2017-06-20T00:17:42.948Z,0
2017-06-20T00:18:42.662Z,0
2017-06-20T00:19:42.937Z,0
2017-06-20T00:20:43.066Z,0
2017-06-20T00:21:43.073Z,0
2017-06-20T00:22:43.411Z,0
2017-06-20T00:23:43.134Z,0
2017-06-20T00:24:43.104Z,0
2017-06-20T00:25:43.503Z,0
2017-06-20T00:26:43.208Z,0
2017-06-20T00:27:43.565Z,0
2017-06-20T00:28:43.589Z,0
2017-06-20T00:29:43.249Z,0
2017-06-20T00:30:43.336Z,0
2017-06-20T00:31:43.373Z,0
2017-06-20T00:32:43.393Z,0
2017-06-20T00:33:43.753Z,0
2017-06-20T00:34:43.713Z,0
2017-06-20T00:35:43.484Z,0
2017-06-20T00:36:43.824Z,0
2017-06-20T00:37:43.861Z,0
2017-06-20T00:38:43.579Z,0
2017-06-20T00:39:43.863Z,0
2017-06-20T00:40:43.945Z,0
2017-06-20T00:41:43.667Z,0
2017-06-20T00:42:44.012Z,0
2017-06-20T00:43:43.729Z,0
2017-06-20T00:44:43.448Z,0
2017-06-20T00:45:44.047Z,0
2017-06-20T00:46:43.820Z,0
2017-06-20T00:47:43.542Z,0
2017-06-20T00:48:43.874Z,0
2017-06-20T00:49:43.591Z,0
2017-06-20T00:50:44.188Z,0
2017-06-20T00:51:43.969Z,0
2017-06-20T00:52:43.993Z,0
2017-06-20T00:53:44.347Z,0
2017-06-20T00:54:44.063Z,0
2017-06-20T00:55:44.033Z,0
2017-06-20T00:56:44.438Z,0
2017-06-20T00:57:44.150Z,0
2017-06-20T00:58:43.546Z,0
2017-06-20T00:59:44.552Z,0
2017-06-20T01:00:43.864Z,0
2017-06-20T01:01:44.581Z,0
2017-06-20T01:02:44.294Z,0
2017-06-20T01:03:44.643Z,0
2017-06-20T01:04:44.358Z,0
2017-06-20T01:05:44.643Z,0
2017-06-20T01:06:44.412Z,0
2017-06-20T01:07:44.782Z,0
2017-06-20T01:08:44.484Z,0
2017-06-20T01:09:44.508Z,0
2017-06-20T01:10:44.480Z,0
2017-06-20T01:11:44.570Z,0
2017-06-20T01:12:44.601Z,0
2017-06-20T01:13:44.635Z,0
2017-06-20T01:14:44.339Z,0
2017-06-20T01:15:44.936Z,0
2017-06-20T01:16:45.030Z,0
2017-06-20T01:17:44.751Z,0
2017-06-20T01:18:45.095Z,0
2017-06-20T01:19:44.184Z,0
2017-06-20T01:20:44.464Z,0
2017-06-20T01:21:44.867Z,0
2017-06-20T01:22:45.205Z,0
2017-06-20T01:23:45.247Z,0
2017-06-20T01:24:44.956Z,0
2017-06-20T01:25:45.242Z,0
2017-06-20T01:26:45.329Z,0
2017-06-20T01:27:45.051Z,0
2017-06-20T01:28:45.387Z,0
2017-06-20T01:29:45.140Z,0
2017-06-20T01:30:45.405Z,0
2017-06-20T01:31:45.169Z,0
2017-06-20T01:32:44.891Z,0
2017-06-20T01:33:45.229Z,0
2017-06-20T01:34:45.056Z,0
2017-06-20T01:35:45.845Z,0
2017-06-20T01:36:45.310Z,0
2017-06-20T01:37:45.658Z,0
2017-06-20T01:38:45.384Z,0
2017-06-20T01:39:45.092Z,0
2017-06-20T01:40:45.686Z,0
2017-06-20T01:41:45.781Z,0
2017-06-20T01:42:45.491Z,0
2017-06-20T01:43:45.835Z,0
2017-06-20T01:44:45.870Z,0
2017-06-20T01:45:45.833Z,0
2017-06-20T01:46:45.619Z,0
2017-06-20T01:47:45.935Z,0
2017-06-20T01:48:45.681Z,0
2017-06-20T01:49:45.705Z,0
2017-06-20T01:50:45.677Z,0
2017-06-20T01:51:45.775Z,0
2017-06-20T01:52:45.791Z,0
2017-06-20T01:53:45.508Z,0
2017-06-20T01:54:45.853Z,0
2017-06-20T01:55:46.138Z,0
2017-06-20T01:56:45.589Z,0
2017-06-20T01:57:45.945Z,0
2017-06-20T01:58:45.967Z,0
2017-06-20T01:59:46.326Z,0
2017-06-20T02:00:46.597Z,0
2017-06-20T02:01:45.784Z,0
2017-06-20T02:02:46.118Z,0
2017-06-20T02:03:46.432Z,0
2017-06-20T02:04:45.877Z,0
2017-06-20T02:05:46.424Z,0
2017-06-20T02:06:46.522Z,0
2017-06-20T02:07:45.922Z,0
2017-06-20T02:08:46.588Z,0
2017-06-20T02:09:45.988Z,0
2017-06-20T02:10:46.582Z,0
2017-06-20T02:11:46.663Z,0
2017-06-20T02:12:46.079Z,0
2017-06-20T02:13:46.729Z,0
2017-06-20T02:14:46.450Z,0
2017-06-20T02:15:47.054Z,0
2017-06-20T02:16:46.826Z,0
2017-06-20T02:17:46.228Z,0
2017-06-20T02:18:46.564Z,0
2017-06-20T02:19:46.589Z,0
2017-06-20T02:20:47.190Z,0
2017-06-20T02:21:46.976Z,0
2017-06-20T02:22:47.003Z,0
2017-06-20T02:23:46.716Z,0
2017-06-20T02:24:47.057Z,0
2017-06-20T02:25:47.350Z,0
2017-06-20T02:26:46.800Z,0
2017-06-20T02:27:46.836Z,0
2017-06-20T02:28:46.868Z,0
2017-06-20T02:29:46.899Z,0
2017-06-20T02:30:47.174Z,0
2017-06-20T02:31:46.942Z,0
2017-06-20T02:32:47.299Z,0
2017-06-20T02:33:47.009Z,0
2017-06-20T02:34:47.358Z,0
2017-06-20T02:35:47.640Z,0
2017-06-20T02:36:47.416Z,0
2017-06-20T02:37:47.135Z,0
2017-06-20T02:38:46.852Z,0
2017-06-20T02:39:47.506Z,0
2017-06-20T02:40:47.169Z,0
2017-06-20T02:41:47.248Z,0
2017-06-20T02:42:46.968Z,0
2017-06-20T02:43:47.313Z,0
2017-06-20T02:44:47.662Z,0
2017-06-20T02:45:47.935Z,0
2017-06-20T02:46:47.403Z,0
2017-06-20T02:47:47.736Z,0
2017-06-20T02:48:47.461Z,0
2017-06-20T02:49:47.490Z,0
2017-06-20T02:50:47.207Z,0
2017-06-20T02:51:47.812Z,0
2017-06-20T02:52:47.576Z,0
2017-06-20T02:53:47.921Z,0
2017-06-20T02:54:47.954Z,0
2017-06-20T02:55:47.983Z,0
2017-06-20T02:56:48.251Z,0
2017-06-20T02:57:47.728Z,0
2017-06-20T02:58:48.080Z,0
2017-06-20T02:59:48.109Z,0
2017-06-20T03:00:47.819Z,0
2017-06-20T03:01:48.103Z,0
2017-06-20T03:02:48.185Z,0
2017-06-20T03:03:47.910Z,0
2017-06-20T03:04:47.614Z,0
2017-06-20T03:05:47.346Z,0
2017-06-20T03:06:48.556Z,0
2017-06-20T03:07:48.016Z,0
2017-06-20T03:08:48.054Z,0
2017-06-20T03:09:48.078Z,0
2017-06-20T03:10:48.423Z,0
2017-06-20T03:11:48.384Z,0
2017-06-20T03:12:48.164Z,0
2017-06-20T03:13:48.512Z,0
2017-06-20T03:14:48.539Z,0
2017-06-20T03:15:48.577Z,0
2017-06-20T03:16:48.549Z,0
2017-06-20T03:17:47.685Z,0
2017-06-20T03:18:48.663Z,0
2017-06-20T03:19:48.682Z,0
2017-06-20T03:20:48.731Z,0
2017-06-20T03:21:48.385Z,0
2017-06-20T03:22:48.482Z,0
2017-06-20T03:23:48.496Z,0
2017-06-20T03:24:48.530Z,0
2017-06-20T03:25:48.563Z,0
2017-06-20T03:26:48.524Z,0
2017-06-20T03:27:48.617Z,0
2017-06-20T03:28:48.650Z,0
2017-06-20T03:29:48.991Z,0
2017-06-20T03:30:48.707Z,0
2017-06-20T03:31:48.996Z,0
2017-06-20T03:32:48.770Z,0
2017-06-20T03:33:48.171Z,0
2017-06-20T03:34:49.135Z,0
2017-06-20T03:35:49.168Z,0
2017-06-20T03:36:48.824Z,0
2017-06-20T03:37:48.602Z,0
2017-06-20T03:38:48.955Z,0
2017-06-20T03:39:49.288Z,0
2017-06-20T03:40:49.317Z,0
2017-06-20T03:41:49.601Z,0
2017-06-20T03:42:49.385Z,0
2017-06-20T03:43:49.410Z,0
2017-06-20T03:44:49.439Z,0
2017-06-20T03:45:49.461Z,0
2017-06-20T03:46:49.745Z,0
2017-06-20T03:47:49.206Z,0
2017-06-20T03:48:49.243Z,0
2017-06-20T03:49:49.276Z,0
2017-06-20T03:50:49.299Z,0
2017-06-20T03:51:49.269Z,0
2017-06-20T03:52:49.678Z,0
2017-06-20T03:53:49.695Z,0
2017-06-20T03:54:49.424Z,0
2017-06-20T03:55:49.445Z,0
2017-06-20T03:56:49.434Z,0
2017-06-20T03:57:48.564Z,0
2017-06-20T03:58:49.846Z,0
2017-06-20T03:59:49.571Z,0
2017-06-20T04:00:49.592Z,0
2017-06-20T04:01:49.881Z,0
2017-06-20T04:02:49.650Z,0
2017-06-20T04:03:49.675Z,0
2017-06-20T04:04:49.717Z,0
2017-06-20T04:05:50.046Z,0
2017-06-20T04:06:50.025Z,0
2017-06-20T04:07:49.803Z,0
2017-06-20T04:08:50.150Z,0
2017-06-20T04:09:49.863Z,0
2017-06-20T04:10:50.202Z,0
2017-06-20T04:11:50.173Z,0
2017-06-20T04:12:50.261Z,0
2017-06-20T04:13:50.287Z,0
2017-06-20T04:14:50.324Z,0
2017-06-20T04:15:50.353Z,0
2017-06-20T04:16:50.322Z,0
2017-06-20T04:17:50.418Z,0
2017-06-20T04:18:50.446Z,0
2017-06-20T04:19:50.471Z,0
2017-06-20T04:20:50.189Z,0
2017-06-20T04:21:50.478Z,0
2017-06-20T04:22:50.574Z,0
2017-06-20T04:23:50.299Z,0
2017-06-20T04:24:49.988Z,0
2017-06-20T04:25:50.650Z,0
2017-06-20T04:26:50.622Z,0
2017-06-20T04:27:49.774Z,0
2017-06-20T04:28:50.739Z,0
2017-06-20T04:29:50.480Z,0
2017-06-20T04:30:50.800Z,0
2017-06-20T04:31:51.082Z,0
2017-06-20T04:32:50.857Z,0
2017-06-20T04:33:50.263Z,0
2017-06-20T04:34:50.287Z,0
2017-06-20T04:35:50.629Z,0
2017-06-20T04:36:51.218Z,0
2017-06-20T04:37:50.998Z,0
2017-06-20T04:38:51.035Z,0
2017-06-20T04:39:51.067Z,0
2017-06-20T04:40:50.460Z,0
2017-06-20T04:41:51.061Z,0
2017-06-20T04:42:50.829Z,0
2017-06-20T04:43:51.220Z,0
2017-06-20T04:44:50.901Z,0
2017-06-20T04:45:50.621Z,0
2017-06-20T04:46:50.582Z,0
2017-06-20T04:47:50.981Z,0
2017-06-20T04:48:51.022Z,0
2017-06-20T04:49:51.039Z,0
2017-06-20T04:50:51.393Z,0
2017-06-20T04:51:51.363Z,0
2017-06-20T04:52:51.455Z,0
2017-06-20T04:53:51.479Z,0
2017-06-20T04:54:51.505Z,5
2017-06-20T04:55:51.226Z,5
2017-06-20T04:56:51.822Z,5
2017-06-20T04:57:51.607Z,5
2017-06-20T04:58:51.628Z,5
2017-06-20T04:59:51.660Z,5
2017-06-20T05:00:51.681Z,5
2017-06-20T05:01:51.703Z,5
2017-06-20T05:02:51.743Z,5
2017-06-20T05:03:51.188Z,5
2017-06-20T05:04:51.489Z,5
2017-06-20T05:05:51.830Z,5
2017-06-20T05:06:51.802Z,5
2017-06-20T05:07:51.583Z,5
2017-06-20T05:08:51.913Z,5
2017-06-20T05:09:51.942Z,5
2017-06-20T05:10:51.658Z,5
2017-06-20T05:11:52.267Z,5
2017-06-20T05:12:51.728Z,5
2017-06-20T05:13:52.083Z,5
2017-06-20T05:14:52.109Z,5
2017-06-20T05:15:52.146Z,5
2017-06-20T05:16:52.112Z,5
2017-06-20T05:17:51.568Z,5
2017-06-20T05:18:52.207Z,5
2017-06-20T05:19:52.245Z,5
2017-06-20T05:20:51.971Z,5
2017-06-20T05:21:52.550Z,5
2017-06-20T05:22:51.405Z,5
2017-06-20T05:23:52.052Z,5
2017-06-20T05:24:52.385Z,5
2017-06-20T05:25:52.421Z,5
2017-06-20T05:26:52.343Z,5
2017-06-20T05:27:51.852Z,5
2017-06-20T05:28:52.195Z,5
2017-06-20T05:29:52.216Z,5
2017-06-20T05:30:52.253Z,5
2017-06-20T05:31:52.847Z,5
2017-06-20T05:32:51.693Z,5
2017-06-20T05:33:52.029Z,5
2017-06-20T05:34:52.697Z,5
2017-06-20T05:35:52.407Z,5
2017-06-20T05:36:52.682Z,5
2017-06-20T05:37:52.775Z,5
2017-06-20T05:38:52.800Z,5
2017-06-20T05:39:52.843Z,5
2017-06-20T05:40:52.947Z,5
2017-06-20T05:41:52.843Z,5
2017-06-20T05:42:52.618Z,5
2017-06-20T05:43:52.641Z,5
2017-06-20T05:44:52.997Z,5
2017-06-20T05:45:52.711Z,5
2017-06-20T05:46:52.610Z,5
2017-06-20T05:47:52.768Z,5
2017-06-20T05:48:52.847Z,5
2017-06-20T05:49:52.826Z,5
2017-06-20T05:50:52.549Z,5
2017-06-20T05:51:53.448Z,5
2017-06-20T05:52:52.600Z,5
2017-06-20T05:53:53.257Z,5
2017-06-20T05:54:53.291Z,5
2017-06-20T05:55:53.030Z,5
2017-06-20T05:56:53.599Z,5
2017-06-20T05:57:53.056Z,5
2017-06-20T05:58:52.774Z,5
2017-06-20T05:59:53.434Z,5
2017-06-20T06:00:53.454Z,5
2017-06-20T06:01:53.736Z,5
2017-06-20T06:02:53.519Z,5
2017-06-20T06:03:53.547Z,5
2017-06-20T06:04:53.274Z,5
2017-06-20T06:05:53.294Z,5
2017-06-20T06:06:53.532Z,5
2017-06-20T06:07:53.669Z,5
2017-06-20T06:08:53.071Z,5
2017-06-20T06:09:53.728Z,5
2017-06-20T06:10:53.448Z,5
2017-06-20T06:11:54.039Z,5
2017-06-20T06:12:53.185Z,5
2017-06-20T06:13:53.836Z,5
2017-06-20T06:14:53.254Z,5
2017-06-20T06:15:52.971Z,5
2017-06-20T06:16:53.876Z,5
2017-06-20T06:17:54.016Z,5
2017-06-20T06:18:53.362Z,5
2017-06-20T06:19:54.039Z,5
2017-06-20T06:20:53.755Z,5
2017-06-20T06:21:54.340Z,5
2017-06-20T06:22:54.118Z,5
2017-06-20T06:23:53.826Z,5
2017-06-20T06:24:54.175Z,5
2017-06-20T06:25:53.579Z,5
2017-06-20T06:26:54.479Z,5
2017-06-20T06:27:54.264Z,5
2017-06-20T06:28:53.674Z,5
2017-06-20T06:29:54.326Z,5
2017-06-20T06:30:54.052Z,5
2017-06-20T06:31:54.640Z,5
2017-06-20T06:32:53.785Z,5
2017-06-20T06:33:54.138Z,5
2017-06-20T06:34:54.470Z,5
2017-06-20T06:35:54.184Z,5
2017-06-20T06:36:54.465Z,5
2017-06-20T06:37:54.557Z,5
2017-06-20T06:38:54.591Z,5
2017-06-20T06:39:53.991Z,5
2017-06-20T06:40:54.648Z,5
2017-06-20T06:41:54.929Z,10
2017-06-20T06:42:54.733Z,10
2017-06-20T06:43:54.730Z,10
2017-06-20T06:44:54.143Z,10
2017-06-20T06:45:54.792Z,10
2017-06-20T06:46:54.454Z,10
2017-06-20T06:47:54.854Z,10
2017-06-20T06:48:53.950Z,10
2017-06-20T06:49:54.607Z,10
2017-06-20T06:50:54.747Z,10
2017-06-20T06:51:54.603Z,10
2017-06-20T06:52:54.694Z,10
2017-06-20T06:53:54.419Z,10
2017-06-20T06:54:54.436Z,10
2017-06-20T06:55:54.465Z,10
2017-06-20T06:56:55.382Z,10
2017-06-20T06:57:54.534Z,10
2017-06-20T06:58:55.189Z,10
2017-06-20T06:59:54.908Z,10
2017-06-20T07:00:55.262Z,10
2017-06-20T07:01:55.220Z,10
2017-06-20T07:02:54.386Z,10
2017-06-20T07:03:55.339Z,10
2017-06-20T07:04:55.368Z,10
2017-06-20T07:05:54.461Z,10
2017-06-20T07:06:55.629Z,10
2017-06-20T07:07:55.454Z,10
2017-06-20T07:08:55.488Z,10
2017-06-20T07:09:55.519Z,10
2017-06-20T07:10:55.549Z,10
2017-06-20T07:11:55.198Z,10
2017-06-20T07:12:55.298Z,10
2017-06-20T07:13:55.640Z,10
2017-06-20T07:14:55.365Z,10
2017-06-20T07:15:55.609Z,10
2017-06-20T07:16:55.670Z,10
2017-06-20T07:17:55.434Z,10
2017-06-20T07:18:55.792Z,10
2017-06-20T07:19:55.496Z,10
2017-06-20T07:20:55.262Z,10
2017-06-20T07:21:55.506Z,10
2017-06-20T07:22:55.971Z,10
2017-06-20T07:23:55.061Z,10
2017-06-20T07:24:55.968Z,10
2017-06-20T07:25:55.696Z,10
2017-06-20T07:26:55.646Z,10
2017-06-20T07:27:56.055Z,10
2017-06-20T07:28:56.092Z,10
2017-06-20T07:29:55.809Z,10
2017-06-20T07:30:55.517Z,10
2017-06-20T07:31:55.806Z,10
2017-06-20T07:32:56.215Z,10
2017-06-20T07:33:56.249Z,10
2017-06-20T07:34:55.021Z,10
2017-06-20T07:35:56.294Z,10
2017-06-20T07:36:55.959Z,10
2017-06-20T07:37:56.064Z,10
2017-06-20T07:38:56.195Z,10
2017-06-20T07:39:55.786Z,10
2017-06-20T07:40:56.469Z,10
2017-06-20T07:41:56.050Z,10
2017-06-20T07:42:56.511Z,10
2017-06-20T07:43:56.545Z,10
2017-06-20T07:44:56.256Z,10
2017-06-20T07:45:56.294Z,10
2017-06-20T07:46:55.943Z,10
2017-06-20T07:47:55.720Z,10
2017-06-20T07:48:56.372Z,10
2017-06-20T07:49:56.716Z,10
2017-06-20T07:50:56.441Z,10
2017-06-20T07:51:57.030Z,10
2017-06-20T07:52:56.803Z,10
2017-06-20T07:53:56.824Z,10
2017-06-20T07:54:56.872Z,10
2017-06-20T07:55:56.624Z,10
2017-06-20T07:56:56.615Z,10
2017-06-20T07:57:56.895Z,10
2017-06-20T07:58:56.988Z,10
2017-06-20T07:59:57.016Z,10
2017-06-20T08:00:56.741Z,10
2017-06-20T08:01:56.759Z,10
2017-06-20T08:02:56.731Z,10
2017-06-20T08:03:56.825Z,10
2017-06-20T08:04:57.172Z,10
2017-06-20T08:05:57.201Z,10
2017-06-20T08:06:56.904Z,10
2017-06-20T08:07:57.505Z,10
2017-06-20T08:08:56.971Z,10
2017-06-20T08:09:56.994Z,10
2017-06-20T08:10:57.025Z,10
2017-06-20T08:11:56.435Z,10
2017-06-20T08:12:57.028Z,10
2017-06-20T08:13:57.117Z,10
2017-06-20T08:14:57.157Z,10
2017-06-20T08:15:57.175Z,10
2017-06-20T08:16:57.211Z,10
2017-06-20T08:17:57.496Z,10
2017-06-20T08:18:57.594Z,10
2017-06-20T08:19:57.304Z,10
2017-06-20T08:20:57.336Z,10
2017-06-20T08:21:57.375Z,10
2017-06-20T08:22:57.648Z,10
2017-06-20T08:23:57.425Z,10
2017-06-20T08:24:57.468Z,10
2017-06-20T08:25:57.481Z,10
2017-06-20T08:26:56.888Z,10
2017-06-20T08:27:57.747Z,10
2017-06-20T08:28:57.264Z,10
2017-06-20T08:29:57.607Z,10
2017-06-20T08:30:57.683Z,10
2017-06-20T08:31:57.676Z,10
2017-06-20T08:32:57.964Z,10
2017-06-20T08:33:58.028Z,10
2017-06-20T08:34:57.767Z,10
2017-06-20T08:35:57.791Z,10
2017-06-20T08:36:57.501Z,10
2017-06-20T08:37:58.416Z,10
2017-06-20T08:38:57.882Z,10
2017-06-20T08:39:57.907Z,10
2017-06-20T08:40:57.944Z,15
2017-06-20T08:41:57.972Z,15
2017-06-20T08:42:58.250Z,15
2017-06-20T08:43:58.038Z,15
2017-06-20T08:44:57.750Z,15
2017-06-20T08:45:58.411Z,15
2017-06-20T08:46:57.796Z,15
2017-06-20T08:47:58.721Z,15
2017-06-20T08:48:57.891Z,15
2017-06-20T08:49:58.530Z,15
2017-06-20T08:50:58.563Z,15
2017-06-20T08:51:57.948Z,15
2017-06-20T08:52:58.861Z,15
2017-06-20T08:53:58.324Z,15
2017-06-20T08:54:58.666Z,15
2017-06-20T08:55:58.703Z,15
2017-06-20T08:56:58.737Z,15
2017-06-20T08:57:58.394Z,15
2017-06-20T08:58:58.798Z,15
2017-06-20T08:59:57.891Z,15
2017-06-20T09:00:58.551Z,15
2017-06-20T09:01:58.891Z,15
2017-06-20T09:02:58.842Z,15
2017-06-20T09:03:58.634Z,15
2017-06-20T09:04:58.683Z,15
2017-06-20T09:05:58.384Z,15
2017-06-20T09:06:58.717Z,15
2017-06-20T09:07:59.321Z,15
2017-06-20T09:08:59.122Z,15
2017-06-20T09:09:59.131Z,15
2017-06-20T09:10:58.888Z,15
2017-06-20T09:11:58.881Z,15
2017-06-20T09:12:59.154Z,15
2017-06-20T09:13:58.302Z,15
2017-06-20T09:14:58.327Z,15
2017-06-20T09:15:59.308Z,15
2017-06-20T09:16:59.343Z,15
2017-06-20T09:17:59.299Z,15
2017-06-20T09:18:59.430Z,15
2017-06-20T09:19:59.422Z,15
2017-06-20T09:20:59.155Z,15
2017-06-20T09:21:59.173Z,15
2017-06-20T09:22:59.461Z,15
2017-06-20T09:23:58.606Z,15
2017-06-20T09:24:58.951Z,15
2017-06-20T09:25:59.296Z,15
2017-06-20T09:26:59.004Z,15
2017-06-20T09:27:59.594Z,15
2017-06-20T09:28:59.386Z,15
2017-06-20T09:29:59.107Z,15
2017-06-20T09:30:59.438Z,15
2017-06-20T09:31:59.157Z,15
2017-06-20T09:32:59.698Z,15
2017-06-20T09:33:59.534Z,15
2017-06-20T09:34:59.566Z,15
2017-06-20T09:35:59.911Z,15
2017-06-20T09:36:59.316Z,15
2017-06-20T09:37:59.921Z,15
2017-06-20T09:39:00.011Z,15
2017-06-20T09:39:59.722Z,15
2017-06-20T09:40:59.746Z,15
2017-06-20T09:42:00.098Z,15
2017-06-20T09:43:00.068Z,15
2017-06-20T09:43:59.847Z,15
2017-06-20T09:45:00.178Z,15
2017-06-20T09:45:59.601Z,15
2017-06-20T09:46:59.937Z,15
2017-06-20T09:47:59.898Z,15
2017-06-20T09:49:00.003Z,15
2017-06-20T09:50:00.346Z,15
2017-06-20T09:51:00.388Z,15
2017-06-20T09:52:00.092Z,15
2017-06-20T09:53:00.669Z,15
2017-06-20T09:53:59.834Z,15
2017-06-20T09:55:00.174Z,20
2017-06-20T09:56:00.513Z,20
2017-06-20T09:57:00.240Z,20
2017-06-20T09:58:00.517Z,20
2017-06-20T09:58:59.976Z,20
2017-06-20T10:00:00.635Z,20
2017-06-20T10:01:00.671Z,20
2017-06-20T10:02:00.386Z,20
2017-06-20T10:03:00.677Z,20
2017-06-20T10:04:00.762Z,20
2017-06-20T10:05:00.483Z,20
2017-06-20T10:06:00.821Z,20
2017-06-20T10:07:00.536Z,20
2017-06-20T10:08:00.865Z,20
2017-06-20T10:09:00.918Z,20
2017-06-20T10:10:00.635Z,20
2017-06-20T10:11:00.982Z,20
2017-06-20T10:12:01.002Z,20
2017-06-20T10:13:00.914Z,20
2017-06-20T10:14:00.438Z,20
2017-06-20T10:15:01.095Z,20
2017-06-20T10:16:01.128Z,20
2017-06-20T10:17:01.149Z,20
2017-06-20T10:18:01.438Z,20
2017-06-20T10:19:00.597Z,20
2017-06-20T10:20:01.243Z,20
2017-06-20T10:21:01.283Z,20
2017-06-20T10:22:01.308Z,20
2017-06-20T10:23:01.273Z,20
2017-06-20T10:24:01.367Z,20
2017-06-20T10:25:01.392Z,20
2017-06-20T10:26:01.111Z,20
2017-06-20T10:27:01.461Z,20
2017-06-20T10:28:01.741Z,20
2017-06-20T10:29:01.208Z,20
2017-06-20T10:30:01.546Z,20
2017-06-20T10:31:01.277Z,20
2017-06-20T10:32:01.613Z,20
2017-06-20T10:33:01.325Z,20
2017-06-20T10:34:01.643Z,25
2017-06-20T10:35:01.383Z,25
2017-06-20T10:36:01.728Z,25
2017-06-20T10:37:01.149Z,25
2017-06-20T10:38:01.166Z,25
2017-06-20T10:39:02.075Z,25
2017-06-20T10:40:01.883Z,25
2017-06-20T10:41:01.265Z,25
2017-06-20T10:42:01.908Z,25
2017-06-20T10:43:01.633Z,25
2017-06-20T10:44:01.911Z,25
2017-06-20T10:45:02.000Z,25
2017-06-20T10:46:01.716Z,25
2017-06-20T10:47:02.054Z,25
2017-06-20T10:48:01.780Z,25
2017-06-20T10:49:02.063Z,25
2017-06-20T10:50:01.848Z,25
2017-06-20T10:51:02.190Z,25
2017-06-20T10:52:02.223Z,25
2017-06-20T10:53:01.943Z,25
2017-06-20T10:54:02.531Z,25
2017-06-20T10:55:01.692Z,25
2017-06-20T10:56:01.717Z,30
2017-06-20T10:57:02.374Z,30
2017-06-20T10:58:02.097Z,30
2017-06-20T10:59:02.698Z,30
2017-06-20T11:00:02.467Z,30
2017-06-20T11:01:02.179Z,30
2017-06-20T11:02:02.214Z,30
2017-06-20T11:03:02.551Z,30
2017-06-20T11:04:02.531Z,30
2017-06-20T11:05:02.620Z,30
2017-06-20T11:06:02.336Z,30
2017-06-20T11:07:02.365Z,30
2017-06-20T11:08:02.435Z,30
2017-06-20T11:09:02.671Z,30
2017-06-20T11:10:02.819Z,30
2017-06-20T11:11:02.804Z,30
2017-06-20T11:12:02.201Z,30
2017-06-20T11:13:02.861Z,30
2017-06-20T11:14:02.828Z,30
2017-06-20T11:15:02.621Z,30
2017-06-20T11:16:02.329Z,30
2017-06-20T11:17:02.665Z,30
2017-06-20T11:18:02.699Z,35
2017-06-20T11:19:02.980Z,35
2017-06-20T11:20:03.079Z,40
2017-06-20T11:21:03.099Z,40
2017-06-20T11:22:02.193Z,45
2017-06-20T11:23:03.173Z,45
2017-06-20T11:24:03.456Z,50
2017-06-20T11:25:02.917Z,50
2017-06-20T11:26:02.945Z,55
2017-06-20T11:27:02.973Z,55
2017-06-20T11:28:02.997Z,60
2017-06-20T11:29:03.596Z,70
2017-06-20T11:30:03.373Z,130
2017-06-20T11:31:03.109Z,405
2017-06-20T11:32:02.810Z,560
2017-06-20T11:33:03.163Z,505
2017-06-20T11:34:03.123Z,445
2017-06-20T11:35:03.524Z,420
2017-06-20T11:36:03.554Z,400
2017-06-20T11:37:03.609Z,400
2017-06-20T11:38:02.994Z,405
2017-06-20T11:39:03.906Z,400
2017-06-20T11:40:03.681Z,450
2017-06-20T11:41:03.713Z,495
2017-06-20T11:42:03.124Z,505
2017-06-20T11:43:03.158Z,515
2017-06-20T11:44:03.756Z,575
2017-06-20T11:45:03.844Z,665
2017-06-20T11:46:03.565Z,715
2017-06-20T11:47:03.610Z,865
2017-06-20T11:48:03.635Z,955
2017-06-20T11:49:04.223Z,880
2017-06-20T11:50:03.998Z,910
2017-06-20T11:51:03.729Z,1005
2017-06-20T11:52:03.756Z,1070
2017-06-20T11:53:03.787Z,1190
2017-06-20T11:54:04.012Z,1255
2017-06-20T11:55:03.869Z,1255
2017-06-20T11:56:04.198Z,1250
2017-06-20T11:57:03.918Z,1185
2017-06-20T11:58:04.290Z,1000
2017-06-20T11:59:04.240Z,945
2017-06-20T12:00:03.716Z,970
2017-06-20T12:01:04.051Z,910
2017-06-20T12:02:03.771Z,770
2017-06-20T12:03:04.119Z,665
2017-06-20T12:04:04.419Z,590
2017-06-20T12:05:03.881Z,565
2017-06-20T12:06:04.229Z,690
2017-06-20T12:07:03.974Z,730
2017-06-20T12:08:04.296Z,660
2017-06-20T12:09:04.256Z,685
2017-06-20T12:10:04.392Z,745
2017-06-20T12:11:04.397Z,740
2017-06-20T12:12:04.126Z,760
2017-06-20T12:13:04.780Z,750
2017-06-20T12:14:04.752Z,755
2017-06-20T12:15:04.217Z,905
2017-06-20T12:16:04.262Z,930
2017-06-20T12:17:04.290Z,810
2017-06-20T12:18:04.646Z,665
2017-06-20T12:19:05.233Z,535
2017-06-20T12:20:04.396Z,575
2017-06-20T12:21:04.775Z,795
2017-06-20T12:22:04.795Z,810
2017-06-20T12:23:05.133Z,755
2017-06-20T12:24:05.099Z,975
2017-06-20T12:25:04.885Z,1100
2017-06-20T12:26:05.230Z,1115
2017-06-20T12:27:04.978Z,1020
2017-06-20T12:28:05.304Z,865
2017-06-20T12:29:05.585Z,920
2017-06-20T12:30:05.373Z,1015
2017-06-20T12:31:05.413Z,810
2017-06-20T12:32:04.823Z,920
2017-06-20T12:33:05.174Z,905
2017-06-20T12:34:05.772Z,1065
2017-06-20T12:35:05.246Z,1135
2017-06-20T12:36:05.599Z,1070
2017-06-20T12:37:05.315Z,945
2017-06-20T12:38:04.732Z,895
2017-06-20T12:39:05.638Z,1055
2017-06-20T12:40:05.425Z,1120
2017-06-20T12:41:05.471Z,1000
2017-06-20T12:42:05.803Z,960
2017-06-20T12:43:05.224Z,885
2017-06-20T12:44:06.128Z,815
2017-06-20T12:45:05.916Z,845
2017-06-20T12:46:05.954Z,910
2017-06-20T12:47:05.683Z,960
2017-06-20T12:48:05.404Z,900
2017-06-20T12:49:05.957Z,895
2017-06-20T12:50:06.098Z,935
2017-06-20T12:51:06.128Z,1055
2017-06-20T12:52:06.174Z,995
2017-06-20T12:53:06.208Z,955
2017-06-20T12:54:05.863Z,1000
2017-06-20T12:55:05.970Z,855
2017-06-20T12:56:05.999Z,830
2017-06-20T12:57:06.343Z,650
2017-06-20T12:58:06.384Z,880
2017-06-20T12:59:06.308Z,945
2017-06-20T13:00:05.846Z,915
2017-06-20T13:01:06.529Z,900
2017-06-20T13:02:06.224Z,1160
2017-06-20T13:03:06.259Z,1270
2017-06-20T13:04:06.861Z,1065
2017-06-20T13:05:06.328Z,960
2017-06-20T13:06:06.369Z,780
2017-06-20T13:07:06.714Z,505
2017-06-20T13:08:06.121Z,115
2017-06-20T13:09:06.741Z,220
2017-06-20T13:10:06.539Z,105
2017-06-20T13:11:06.848Z,200
2017-06-20T13:12:06.271Z,175
2017-06-20T13:13:06.615Z,170
2017-06-20T13:14:07.227Z,165
2017-06-20T13:15:06.688Z,165
2017-06-20T13:16:06.415Z,160
2017-06-20T13:17:06.770Z,165
2017-06-20T13:18:06.803Z,160
2017-06-20T13:19:06.778Z,160
2017-06-20T13:20:07.182Z,155
2017-06-20T13:21:06.922Z,155
2017-06-20T13:22:06.958Z,155
2017-06-20T13:23:07.289Z,155
2017-06-20T13:24:06.958Z,155
2017-06-20T13:25:06.742Z,155
2017-06-20T13:26:07.414Z,160
2017-06-20T13:27:06.803Z,155
2017-06-20T13:28:06.849Z,150
2017-06-20T13:29:07.774Z,145
2017-06-20T13:30:07.538Z,135
2017-06-20T13:31:07.265Z,140
2017-06-20T13:32:06.688Z,130
2017-06-20T13:33:07.340Z,125
2017-06-20T13:34:07.621Z,125
2017-06-20T13:35:07.724Z,120
2017-06-20T13:36:07.757Z,120
2017-06-20T13:37:07.483Z,120
2017-06-20T13:38:07.516Z,115
2017-06-20T13:39:08.119Z,115
2017-06-20T13:40:07.586Z,115
2017-06-20T13:41:07.312Z,110
2017-06-20T13:42:07.359Z,110
2017-06-20T13:43:08.013Z,110
2017-06-20T13:44:07.990Z,115
2017-06-20T13:45:07.770Z,110
2017-06-20T13:46:08.123Z,110
2017-06-20T13:47:07.844Z,110
2017-06-20T13:48:07.872Z,110
2017-06-20T13:49:07.853Z,110
2017-06-20T13:50:07.963Z,105
2017-06-20T13:51:07.990Z,100
2017-06-20T13:52:07.705Z,100
2017-06-20T13:53:08.365Z,105
2017-06-20T13:54:08.650Z,105
2017-06-20T13:55:08.438Z,105
2017-06-20T13:56:08.162Z,105
2017-06-20T13:57:07.877Z,105
2017-06-20T13:58:08.229Z,105
2017-06-20T13:59:08.521Z,105
2017-06-20T14:00:08.631Z,100
2017-06-20T14:01:08.643Z,85
2017-06-20T14:02:08.695Z,90
2017-06-20T14:03:08.713Z,100
2017-06-20T14:04:08.700Z,95
2017-06-20T14:05:08.791Z,105
2017-06-20T14:06:08.512Z,100
2017-06-20T14:07:08.544Z,95
2017-06-20T14:08:08.901Z,95
2017-06-20T14:09:09.171Z,90
2017-06-20T14:10:08.655Z,105
2017-06-20T14:11:09.003Z,95
2017-06-20T14:12:08.403Z,105
2017-06-20T14:13:08.757Z,110
2017-06-20T14:14:08.486Z,110
2017-06-20T14:15:08.778Z,105
2017-06-20T14:16:09.180Z,105
2017-06-20T14:17:08.612Z,95
2017-06-20T14:18:08.613Z,95
2017-06-20T14:19:08.975Z,90
2017-06-20T14:20:09.198Z,90
2017-06-20T14:21:09.067Z,85
2017-06-20T14:22:09.076Z,90
2017-06-20T14:23:08.781Z,85
2017-06-20T14:24:09.142Z,85